sensor_id;sensor_type;location;lat;lon;timestamp;P1;durP1;ratioP1;P2;durP2;ratioP2
19183;SDS011;9724;51.194;6.856;2023-05-24T00:01:51;14.57;;;2.70;;
19183;SDS011;9724;51.194;6.856;2023-05-24T00:04:21;10.60;;;2.60;;
19183;SDS011;9724;51.194;6.856;2023-05-24T00:06:47;10.83;;;2.80;;
19183;SDS011;9724;51.194;6.856;2023-05-24T00:09:13;18.63;;;3.33;;
19183;SDS011;9724;51.194;6.856;2023-05-24T00:11:40;14.30;;;2.73;;
19183;SDS011;9724;51.194;6.856;2023-05-24T00:14:06;15.37;;;2.67;;
19183;SDS011;9724;51.194;6.856;2023-05-24T00:16:33;20.67;;;3.23;;
19183;SDS011;9724;51.194;6.856;2023-05-24T00:19:01;10.93;;;2.30;;
19183;SDS011;9724;51.194;6.856;2023-05-24T00:21:27;13.87;;;2.70;;
19183;SDS011;9724;51.194;6.856;2023-05-24T00:23:53;15.47;;;2.50;;
19183;SDS011;9724;51.194;6.856;2023-05-24T00:26:19;12.50;;;2.60;;
19183;SDS011;9724;51.194;6.856;2023-05-24T00:28:46;11.43;;;2.70;;
19183;SDS011;9724;51.194;6.856;2023-05-24T00:31:12;11.90;;;2.70;;
19183;SDS011;9724;51.194;6.856;2023-05-24T00:33:40;10.77;;;2.30;;
19183;SDS011;9724;51.194;6.856;2023-05-24T00:36:06;10.87;;;2.40;;
19183;SDS011;9724;51.194;6.856;2023-05-24T00:38:34;14.10;;;2.30;;
19183;SDS011;9724;51.194;6.856;2023-05-24T00:41:00;14.00;;;2.70;;
19183;SDS011;9724;51.194;6.856;2023-05-24T00:43:27;10.67;;;2.40;;
19183;SDS011;9724;51.194;6.856;2023-05-24T00:45:58;16.83;;;3.40;;
19183;SDS011;9724;51.194;6.856;2023-05-24T00:48:51;12.33;;;3.20;;
19183;SDS011;9724;51.194;6.856;2023-05-24T00:51:18;12.40;;;2.60;;
19183;SDS011;9724;51.194;6.856;2023-05-24T00:53:45;19.87;;;2.67;;
19183;SDS011;9724;51.194;6.856;2023-05-24T00:56:13;10.37;;;2.57;;
19183;SDS011;9724;51.194;6.856;2023-05-24T00:58:40;16.43;;;2.70;;
19183;SDS011;9724;51.194;6.856;2023-05-24T01:01:06;13.60;;;3.33;;
19183;SDS011;9724;51.194;6.856;2023-05-24T01:03:33;14.40;;;3.13;;
19183;SDS011;9724;51.194;6.856;2023-05-24T01:06:01;8.27;;;2.70;;
19183;SDS011;9724;51.194;6.856;2023-05-24T01:08:33;14.13;;;2.60;;
19183;SDS011;9724;51.194;6.856;2023-05-24T01:11:09;14.23;;;2.63;;
19183;SDS011;9724;51.194;6.856;2023-05-24T01:13:45;12.03;;;2.83;;
19183;SDS011;9724;51.194;6.856;2023-05-24T01:16:16;12.10;;;2.40;;
19183;SDS011;9724;51.194;6.856;2023-05-24T01:18:46;10.93;;;2.50;;
19183;SDS011;9724;51.194;6.856;2023-05-24T01:21:22;9.30;;;2.10;;
19183;SDS011;9724;51.194;6.856;2023-05-24T01:24:04;10.17;;;2.30;;
19183;SDS011;9724;51.194;6.856;2023-05-24T01:26:41;12.73;;;2.47;;
19183;SDS011;9724;51.194;6.856;2023-05-24T01:29:13;9.83;;;2.40;;
19183;SDS011;9724;51.194;6.856;2023-05-24T01:31:41;12.53;;;2.53;;
19183;SDS011;9724;51.194;6.856;2023-05-24T01:34:07;7.97;;;2.27;;
19183;SDS011;9724;51.194;6.856;2023-05-24T01:36:34;14.03;;;2.90;;
19183;SDS011;9724;51.194;6.856;2023-05-24T01:39:00;13.13;;;2.20;;
19183;SDS011;9724;51.194;6.856;2023-05-24T01:41:30;9.80;;;2.23;;
19183;SDS011;9724;51.194;6.856;2023-05-24T01:44:03;11.47;;;3.17;;
19183;SDS011;9724;51.194;6.856;2023-05-24T01:46:35;8.40;;;2.47;;
19183;SDS011;9724;51.194;6.856;2023-05-24T01:49:08;11.63;;;2.60;;
19183;SDS011;9724;51.194;6.856;2023-05-24T01:51:39;9.70;;;2.30;;
19183;SDS011;9724;51.194;6.856;2023-05-24T01:54:08;7.80;;;2.30;;
19183;SDS011;9724;51.194;6.856;2023-05-24T01:56:36;8.77;;;2.40;;
19183;SDS011;9724;51.194;6.856;2023-05-24T01:59:03;12.30;;;2.53;;
19183;SDS011;9724;51.194;6.856;2023-05-24T02:01:29;9.87;;;2.90;;
19183;SDS011;9724;51.194;6.856;2023-05-24T02:03:57;9.50;;;2.33;;
19183;SDS011;9724;51.194;6.856;2023-05-24T02:06:24;10.00;;;2.37;;
19183;SDS011;9724;51.194;6.856;2023-05-24T02:08:50;11.87;;;2.90;;
19183;SDS011;9724;51.194;6.856;2023-05-24T02:11:17;8.47;;;2.80;;
19183;SDS011;9724;51.194;6.856;2023-05-24T02:13:44;13.87;;;3.27;;
19183;SDS011;9724;51.194;6.856;2023-05-24T02:16:10;11.33;;;3.17;;
19183;SDS011;9724;51.194;6.856;2023-05-24T02:18:36;16.73;;;3.33;;
19183;SDS011;9724;51.194;6.856;2023-05-24T02:21:04;15.93;;;3.60;;
19183;SDS011;9724;51.194;6.856;2023-05-24T02:23:30;13.10;;;3.67;;
19183;SDS011;9724;51.194;6.856;2023-05-24T02:25:56;8.07;;;3.33;;
19183;SDS011;9724;51.194;6.856;2023-05-24T02:28:22;15.67;;;4.63;;
19183;SDS011;9724;51.194;6.856;2023-05-24T02:30:49;16.87;;;4.60;;
19183;SDS011;9724;51.194;6.856;2023-05-24T02:33:15;17.03;;;4.40;;
19183;SDS011;9724;51.194;6.856;2023-05-24T02:35:42;20.40;;;3.90;;
19183;SDS011;9724;51.194;6.856;2023-05-24T02:38:08;11.60;;;3.83;;
19183;SDS011;9724;51.194;6.856;2023-05-24T02:40:35;14.73;;;3.93;;
19183;SDS011;9724;51.194;6.856;2023-05-24T02:43:01;17.43;;;3.77;;
19183;SDS011;9724;51.194;6.856;2023-05-24T02:45:28;13.27;;;3.33;;
19183;SDS011;9724;51.194;6.856;2023-05-24T02:47:54;5.73;;;2.87;;
19183;SDS011;9724;51.194;6.856;2023-05-24T02:50:21;8.37;;;2.50;;
19183;SDS011;9724;51.194;6.856;2023-05-24T02:52:47;7.27;;;2.63;;
19183;SDS011;9724;51.194;6.856;2023-05-24T02:55:14;6.23;;;2.53;;
19183;SDS011;9724;51.194;6.856;2023-05-24T02:57:40;9.90;;;2.90;;
19183;SDS011;9724;51.194;6.856;2023-05-24T03:00:07;11.20;;;2.87;;
19183;SDS011;9724;51.194;6.856;2023-05-24T03:02:36;7.40;;;2.80;;
19183;SDS011;9724;51.194;6.856;2023-05-24T03:05:03;11.07;;;2.90;;
19183;SDS011;9724;51.194;6.856;2023-05-24T03:07:30;10.87;;;2.90;;
19183;SDS011;9724;51.194;6.856;2023-05-24T03:09:56;7.77;;;2.70;;
19183;SDS011;9724;51.194;6.856;2023-05-24T03:12:48;7.07;;;2.97;;
19183;SDS011;9724;51.194;6.856;2023-05-24T03:15:15;10.87;;;2.60;;
19183;SDS011;9724;51.194;6.856;2023-05-24T03:17:41;9.07;;;2.77;;
19183;SDS011;9724;51.194;6.856;2023-05-24T03:20:08;5.60;;;2.53;;
19183;SDS011;9724;51.194;6.856;2023-05-24T03:22:36;9.17;;;2.33;;
19183;SDS011;9724;51.194;6.856;2023-05-24T03:25:02;8.33;;;2.63;;
19183;SDS011;9724;51.194;6.856;2023-05-24T03:27:29;9.37;;;2.40;;
19183;SDS011;9724;51.194;6.856;2023-05-24T03:29:55;8.33;;;2.93;;
19183;SDS011;9724;51.194;6.856;2023-05-24T03:32:22;9.80;;;3.10;;
19183;SDS011;9724;51.194;6.856;2023-05-24T03:34:48;8.00;;;2.40;;
19183;SDS011;9724;51.194;6.856;2023-05-24T03:37:15;14.77;;;2.97;;
19183;SDS011;9724;51.194;6.856;2023-05-24T03:39:41;8.90;;;2.43;;
19183;SDS011;9724;51.194;6.856;2023-05-24T03:42:08;9.13;;;2.53;;
19183;SDS011;9724;51.194;6.856;2023-05-24T03:44:34;9.83;;;2.60;;
19183;SDS011;9724;51.194;6.856;2023-05-24T03:47:01;8.40;;;2.50;;
19183;SDS011;9724;51.194;6.856;2023-05-24T03:49:28;8.67;;;2.53;;
19183;SDS011;9724;51.194;6.856;2023-05-24T03:51:54;5.67;;;2.60;;
19183;SDS011;9724;51.194;6.856;2023-05-24T03:54:20;10.73;;;2.70;;
19183;SDS011;9724;51.194;6.856;2023-05-24T03:56:47;12.60;;;2.70;;
19183;SDS011;9724;51.194;6.856;2023-05-24T03:59:13;11.97;;;2.90;;
19183;SDS011;9724;51.194;6.856;2023-05-24T04:01:39;11.53;;;2.97;;
19183;SDS011;9724;51.194;6.856;2023-05-24T04:04:06;10.30;;;3.10;;
19183;SDS011;9724;51.194;6.856;2023-05-24T04:06:33;9.83;;;2.80;;
19183;SDS011;9724;51.194;6.856;2023-05-24T04:09:01;12.60;;;3.00;;
19183;SDS011;9724;51.194;6.856;2023-05-24T04:11:29;12.43;;;3.10;;
19183;SDS011;9724;51.194;6.856;2023-05-24T04:13:56;11.10;;;2.73;;
19183;SDS011;9724;51.194;6.856;2023-05-24T04:16:24;12.73;;;2.50;;
19183;SDS011;9724;51.194;6.856;2023-05-24T04:18:52;13.47;;;2.70;;
19183;SDS011;9724;51.194;6.856;2023-05-24T04:21:19;12.27;;;2.87;;
19183;SDS011;9724;51.194;6.856;2023-05-24T04:23:45;10.90;;;2.83;;
19183;SDS011;9724;51.194;6.856;2023-05-24T04:26:12;13.60;;;3.13;;
19183;SDS011;9724;51.194;6.856;2023-05-24T04:28:39;9.47;;;2.60;;
19183;SDS011;9724;51.194;6.856;2023-05-24T04:31:06;12.97;;;2.63;;
19183;SDS011;9724;51.194;6.856;2023-05-24T04:33:33;9.47;;;2.77;;
19183;SDS011;9724;51.194;6.856;2023-05-24T04:36:00;11.23;;;2.77;;
19183;SDS011;9724;51.194;6.856;2023-05-24T04:38:27;8.00;;;2.77;;
19183;SDS011;9724;51.194;6.856;2023-05-24T04:40:54;10.43;;;2.70;;
19183;SDS011;9724;51.194;6.856;2023-05-24T04:43:21;7.43;;;3.37;;
19183;SDS011;9724;51.194;6.856;2023-05-24T04:45:47;10.27;;;3.17;;
19183;SDS011;9724;51.194;6.856;2023-05-24T04:48:13;8.87;;;2.87;;
19183;SDS011;9724;51.194;6.856;2023-05-24T04:50:39;11.73;;;2.90;;
19183;SDS011;9724;51.194;6.856;2023-05-24T04:53:06;10.20;;;3.07;;
19183;SDS011;9724;51.194;6.856;2023-05-24T04:55:33;16.97;;;3.27;;
19183;SDS011;9724;51.194;6.856;2023-05-24T04:58:00;16.00;;;3.30;;
19183;SDS011;9724;51.194;6.856;2023-05-24T05:00:27;13.73;;;3.30;;
19183;SDS011;9724;51.194;6.856;2023-05-24T05:02:53;15.37;;;3.63;;
19183;SDS011;9724;51.194;6.856;2023-05-24T05:05:19;11.90;;;3.70;;
19183;SDS011;9724;51.194;6.856;2023-05-24T05:07:46;15.83;;;3.63;;
19183;SDS011;9724;51.194;6.856;2023-05-24T05:10:15;13.97;;;3.77;;
19183;SDS011;9724;51.194;6.856;2023-05-24T05:12:42;17.63;;;4.00;;
19183;SDS011;9724;51.194;6.856;2023-05-24T05:15:09;9.70;;;3.20;;
19183;SDS011;9724;51.194;6.856;2023-05-24T05:17:35;12.33;;;3.47;;
19183;SDS011;9724;51.194;6.856;2023-05-24T05:20:02;12.60;;;3.30;;
19183;SDS011;9724;51.194;6.856;2023-05-24T05:22:28;16.33;;;3.70;;
19183;SDS011;9724;51.194;6.856;2023-05-24T05:24:56;10.73;;;3.60;;
19183;SDS011;9724;51.194;6.856;2023-05-24T05:27:22;14.83;;;3.77;;
19183;SDS011;9724;51.194;6.856;2023-05-24T05:29:49;15.77;;;3.73;;
19183;SDS011;9724;51.194;6.856;2023-05-24T05:32:15;22.77;;;3.77;;
19183;SDS011;9724;51.194;6.856;2023-05-24T05:34:42;15.93;;;3.53;;
19183;SDS011;9724;51.194;6.856;2023-05-24T05:37:09;22.67;;;4.10;;
19183;SDS011;9724;51.194;6.856;2023-05-24T05:39:36;18.40;;;3.70;;
19183;SDS011;9724;51.194;6.856;2023-05-24T05:42:03;22.43;;;4.30;;
19183;SDS011;9724;51.194;6.856;2023-05-24T05:44:29;20.20;;;4.23;;
19183;SDS011;9724;51.194;6.856;2023-05-24T05:46:56;17.57;;;3.90;;
19183;SDS011;9724;51.194;6.856;2023-05-24T05:49:22;22.13;;;4.33;;
19183;SDS011;9724;51.194;6.856;2023-05-24T05:51:49;20.67;;;4.33;;
19183;SDS011;9724;51.194;6.856;2023-05-24T05:54:17;16.67;;;4.00;;
19183;SDS011;9724;51.194;6.856;2023-05-24T05:56:43;17.50;;;4.17;;
19183;SDS011;9724;51.194;6.856;2023-05-24T05:59:12;18.67;;;4.63;;
19183;SDS011;9724;51.194;6.856;2023-05-24T06:01:40;19.37;;;4.47;;
19183;SDS011;9724;51.194;6.856;2023-05-24T06:04:07;22.70;;;4.23;;
19183;SDS011;9724;51.194;6.856;2023-05-24T06:06:33;27.67;;;4.37;;
19183;SDS011;9724;51.194;6.856;2023-05-24T06:09:00;22.57;;;4.57;;
19183;SDS011;9724;51.194;6.856;2023-05-24T06:11:26;27.87;;;4.97;;
19183;SDS011;9724;51.194;6.856;2023-05-24T06:13:52;22.93;;;4.33;;
19183;SDS011;9724;51.194;6.856;2023-05-24T06:16:19;22.30;;;4.70;;
19183;SDS011;9724;51.194;6.856;2023-05-24T06:18:45;15.73;;;4.10;;
19183;SDS011;9724;51.194;6.856;2023-05-24T06:21:30;27.70;;;5.33;;
19183;SDS011;9724;51.194;6.856;2023-05-24T06:23:57;28.37;;;4.37;;
19183;SDS011;9724;51.194;6.856;2023-05-24T06:26:24;20.90;;;4.53;;
19183;SDS011;9724;51.194;6.856;2023-05-24T06:28:51;20.90;;;4.50;;
19183;SDS011;9724;51.194;6.856;2023-05-24T06:31:17;23.73;;;4.83;;
19183;SDS011;9724;51.194;6.856;2023-05-24T06:33:44;23.57;;;4.90;;
19183;SDS011;9724;51.194;6.856;2023-05-24T06:36:21;25.97;;;5.17;;
19183;SDS011;9724;51.194;6.856;2023-05-24T06:38:48;28.80;;;5.00;;
19183;SDS011;9724;51.194;6.856;2023-05-24T06:41:14;21.73;;;4.63;;
19183;SDS011;9724;51.194;6.856;2023-05-24T06:43:41;23.20;;;4.97;;
19183;SDS011;9724;51.194;6.856;2023-05-24T06:46:07;23.80;;;4.73;;
19183;SDS011;9724;51.194;6.856;2023-05-24T06:48:33;30.80;;;4.80;;
19183;SDS011;9724;51.194;6.856;2023-05-24T06:51:00;31.70;;;4.77;;
19183;SDS011;9724;51.194;6.856;2023-05-24T06:53:26;34.37;;;5.07;;
19183;SDS011;9724;51.194;6.856;2023-05-24T06:55:54;27.67;;;4.77;;
19183;SDS011;9724;51.194;6.856;2023-05-24T06:58:22;21.73;;;5.40;;
19183;SDS011;9724;51.194;6.856;2023-05-24T07:00:49;29.77;;;4.07;;
19183;SDS011;9724;51.194;6.856;2023-05-24T07:03:15;25.60;;;4.80;;
19183;SDS011;9724;51.194;6.856;2023-05-24T07:05:42;27.07;;;4.40;;
19183;SDS011;9724;51.194;6.856;2023-05-24T07:08:08;30.07;;;4.30;;
19183;SDS011;9724;51.194;6.856;2023-05-24T07:10:34;26.33;;;4.60;;
19183;SDS011;9724;51.194;6.856;2023-05-24T07:13:01;27.63;;;4.57;;
19183;SDS011;9724;51.194;6.856;2023-05-24T07:15:28;24.40;;;4.53;;
19183;SDS011;9724;51.194;6.856;2023-05-24T07:17:55;20.43;;;4.53;;
19183;SDS011;9724;51.194;6.856;2023-05-24T07:20:21;25.70;;;4.67;;
19183;SDS011;9724;51.194;6.856;2023-05-24T07:22:48;23.20;;;4.73;;
19183;SDS011;9724;51.194;6.856;2023-05-24T07:25:14;33.57;;;5.07;;
19183;SDS011;9724;51.194;6.856;2023-05-24T07:27:40;19.07;;;4.47;;
19183;SDS011;9724;51.194;6.856;2023-05-24T07:30:07;26.13;;;4.90;;
19183;SDS011;9724;51.194;6.856;2023-05-24T07:32:45;28.60;;;4.83;;
19183;SDS011;9724;51.194;6.856;2023-05-24T07:35:11;17.63;;;4.27;;
19183;SDS011;9724;51.194;6.856;2023-05-24T07:37:38;16.53;;;4.57;;
19183;SDS011;9724;51.194;6.856;2023-05-24T07:40:05;20.03;;;4.93;;
19183;SDS011;9724;51.194;6.856;2023-05-24T07:42:34;23.67;;;6.03;;
19183;SDS011;9724;51.194;6.856;2023-05-24T07:45:01;18.53;;;4.43;;
19183;SDS011;9724;51.194;6.856;2023-05-24T07:47:28;17.97;;;4.40;;
19183;SDS011;9724;51.194;6.856;2023-05-24T07:49:54;17.43;;;4.30;;
19183;SDS011;9724;51.194;6.856;2023-05-24T07:52:21;18.47;;;4.10;;
19183;SDS011;9724;51.194;6.856;2023-05-24T07:54:47;18.33;;;4.17;;
19183;SDS011;9724;51.194;6.856;2023-05-24T07:57:14;16.30;;;3.83;;
19183;SDS011;9724;51.194;6.856;2023-05-24T07:59:40;15.30;;;3.87;;
19183;SDS011;9724;51.194;6.856;2023-05-24T08:02:07;15.73;;;4.53;;
19183;SDS011;9724;51.194;6.856;2023-05-24T08:04:36;19.80;;;4.43;;
19183;SDS011;9724;51.194;6.856;2023-05-24T08:07:03;28.67;;;6.33;;
19183;SDS011;9724;51.194;6.856;2023-05-24T08:09:30;20.00;;;6.87;;
19183;SDS011;9724;51.194;6.856;2023-05-24T08:12:00;23.63;;;7.57;;
19183;SDS011;9724;51.194;6.856;2023-05-24T08:14:26;25.30;;;6.80;;
19183;SDS011;9724;51.194;6.856;2023-05-24T08:16:52;21.37;;;5.93;;
19183;SDS011;9724;51.194;6.856;2023-05-24T08:19:19;28.47;;;6.87;;
19183;SDS011;9724;51.194;6.856;2023-05-24T08:21:46;20.10;;;5.77;;
19183;SDS011;9724;51.194;6.856;2023-05-24T08:24:12;21.63;;;5.83;;
19183;SDS011;9724;51.194;6.856;2023-05-24T08:26:39;25.43;;;5.90;;
19183;SDS011;9724;51.194;6.856;2023-05-24T08:29:05;20.57;;;6.40;;
19183;SDS011;9724;51.194;6.856;2023-05-24T08:31:32;17.80;;;5.50;;
19183;SDS011;9724;51.194;6.856;2023-05-24T08:34:00;16.13;;;5.90;;
19183;SDS011;9724;51.194;6.856;2023-05-24T08:36:27;19.60;;;7.83;;
19183;SDS011;9724;51.194;6.856;2023-05-24T08:38:54;22.47;;;6.73;;
19183;SDS011;9724;51.194;6.856;2023-05-24T08:41:20;17.97;;;6.43;;
19183;SDS011;9724;51.194;6.856;2023-05-24T08:43:47;18.47;;;6.00;;
19183;SDS011;9724;51.194;6.856;2023-05-24T08:46:13;20.63;;;5.37;;
19183;SDS011;9724;51.194;6.856;2023-05-24T08:48:43;19.53;;;6.23;;
19183;SDS011;9724;51.194;6.856;2023-05-24T08:51:10;14.13;;;5.40;;
19183;SDS011;9724;51.194;6.856;2023-05-24T08:53:37;17.20;;;4.87;;
19183;SDS011;9724;51.194;6.856;2023-05-24T08:56:04;21.33;;;4.93;;
19183;SDS011;9724;51.194;6.856;2023-05-24T08:58:33;16.13;;;4.93;;
19183;SDS011;9724;51.194;6.856;2023-05-24T09:00:59;20.50;;;6.00;;
19183;SDS011;9724;51.194;6.856;2023-05-24T09:03:26;22.80;;;5.83;;
19183;SDS011;9724;51.194;6.856;2023-05-24T09:05:53;19.17;;;5.70;;
19183;SDS011;9724;51.194;6.856;2023-05-24T09:08:19;23.07;;;6.20;;
19183;SDS011;9724;51.194;6.856;2023-05-24T09:10:47;23.63;;;7.03;;
19183;SDS011;9724;51.194;6.856;2023-05-24T09:13:22;20.47;;;7.30;;
19183;SDS011;9724;51.194;6.856;2023-05-24T09:15:48;27.77;;;7.37;;
19183;SDS011;9724;51.194;6.856;2023-05-24T09:18:15;17.87;;;6.20;;
19183;SDS011;9724;51.194;6.856;2023-05-24T09:20:41;17.17;;;7.23;;
19183;SDS011;9724;51.194;6.856;2023-05-24T09:23:08;26.70;;;6.13;;
19183;SDS011;9724;51.194;6.856;2023-05-24T09:25:35;28.80;;;6.47;;
19183;SDS011;9724;51.194;6.856;2023-05-24T09:28:04;19.70;;;6.20;;
19183;SDS011;9724;51.194;6.856;2023-05-24T09:30:32;19.10;;;5.83;;
19183;SDS011;9724;51.194;6.856;2023-05-24T09:32:59;19.00;;;6.37;;
19183;SDS011;9724;51.194;6.856;2023-05-24T09:35:26;13.30;;;5.97;;
19183;SDS011;9724;51.194;6.856;2023-05-24T09:37:53;18.83;;;5.47;;
19183;SDS011;9724;51.194;6.856;2023-05-24T09:40:22;17.07;;;5.93;;
19183;SDS011;9724;51.194;6.856;2023-05-24T09:42:48;15.57;;;6.10;;
19183;SDS011;9724;51.194;6.856;2023-05-24T09:45:16;17.33;;;5.33;;
19183;SDS011;9724;51.194;6.856;2023-05-24T09:47:43;18.17;;;5.70;;
19183;SDS011;9724;51.194;6.856;2023-05-24T09:50:10;28.37;;;6.30;;
19183;SDS011;9724;51.194;6.856;2023-05-24T09:52:38;33.73;;;6.50;;
19183;SDS011;9724;51.194;6.856;2023-05-24T09:55:11;21.93;;;5.70;;
19183;SDS011;9724;51.194;6.856;2023-05-24T09:57:38;27.60;;;5.87;;
19183;SDS011;9724;51.194;6.856;2023-05-24T10:00:04;17.43;;;5.10;;
19183;SDS011;9724;51.194;6.856;2023-05-24T10:02:39;14.03;;;4.83;;
19183;SDS011;9724;51.194;6.856;2023-05-24T10:05:18;25.63;;;5.30;;
19183;SDS011;9724;51.194;6.856;2023-05-24T10:07:44;17.43;;;4.97;;
19183;SDS011;9724;51.194;6.856;2023-05-24T10:10:11;15.60;;;5.47;;
19183;SDS011;9724;51.194;6.856;2023-05-24T10:12:37;25.93;;;5.03;;
19183;SDS011;9724;51.194;6.856;2023-05-24T10:15:08;21.33;;;5.73;;
19183;SDS011;9724;51.194;6.856;2023-05-24T10:17:36;18.63;;;5.30;;
19183;SDS011;9724;51.194;6.856;2023-05-24T10:20:03;20.67;;;6.53;;
19183;SDS011;9724;51.194;6.856;2023-05-24T10:22:32;16.27;;;5.10;;
19183;SDS011;9724;51.194;6.856;2023-05-24T10:25:02;18.57;;;5.30;;
19183;SDS011;9724;51.194;6.856;2023-05-24T10:27:31;16.57;;;4.93;;
19183;SDS011;9724;51.194;6.856;2023-05-24T10:29:58;18.17;;;5.30;;
19183;SDS011;9724;51.194;6.856;2023-05-24T10:32:26;15.17;;;5.00;;
19183;SDS011;9724;51.194;6.856;2023-05-24T10:34:56;16.83;;;4.40;;
19183;SDS011;9724;51.194;6.856;2023-05-24T10:37:23;15.80;;;4.67;;
19183;SDS011;9724;51.194;6.856;2023-05-24T10:39:50;13.27;;;4.80;;
19183;SDS011;9724;51.194;6.856;2023-05-24T10:42:17;17.93;;;4.73;;
19183;SDS011;9724;51.194;6.856;2023-05-24T10:44:43;13.47;;;4.40;;
19183;SDS011;9724;51.194;6.856;2023-05-24T10:47:09;14.60;;;4.30;;
19183;SDS011;9724;51.194;6.856;2023-05-24T10:49:36;21.47;;;5.33;;
19183;SDS011;9724;51.194;6.856;2023-05-24T10:52:07;18.97;;;4.47;;
19183;SDS011;9724;51.194;6.856;2023-05-24T10:54:34;12.53;;;4.27;;
19183;SDS011;9724;51.194;6.856;2023-05-24T10:57:01;13.67;;;3.80;;
19183;SDS011;9724;51.194;6.856;2023-05-24T10:59:30;17.73;;;4.23;;
19183;SDS011;9724;51.194;6.856;2023-05-24T11:02:02;15.50;;;4.70;;
19183;SDS011;9724;51.194;6.856;2023-05-24T11:04:31;20.80;;;4.67;;
19183;SDS011;9724;51.194;6.856;2023-05-24T11:07:01;12.97;;;3.83;;
19183;SDS011;9724;51.194;6.856;2023-05-24T11:09:29;16.93;;;4.43;;
19183;SDS011;9724;51.194;6.856;2023-05-24T11:11:59;10.70;;;4.20;;
19183;SDS011;9724;51.194;6.856;2023-05-24T11:14:33;16.63;;;4.40;;
19183;SDS011;9724;51.194;6.856;2023-05-24T11:17:01;20.13;;;4.50;;
19183;SDS011;9724;51.194;6.856;2023-05-24T11:19:29;15.77;;;4.40;;
19183;SDS011;9724;51.194;6.856;2023-05-24T11:21:58;13.43;;;5.33;;
19183;SDS011;9724;51.194;6.856;2023-05-24T11:24:25;16.97;;;5.07;;
19183;SDS011;9724;51.194;6.856;2023-05-24T11:26:52;14.67;;;5.20;;
19183;SDS011;9724;51.194;6.856;2023-05-24T11:29:18;16.27;;;5.17;;
19183;SDS011;9724;51.194;6.856;2023-05-24T11:31:47;18.87;;;4.90;;
19183;SDS011;9724;51.194;6.856;2023-05-24T11:34:15;14.17;;;4.87;;
19183;SDS011;9724;51.194;6.856;2023-05-24T11:36:43;14.70;;;4.37;;
19183;SDS011;9724;51.194;6.856;2023-05-24T11:39:10;20.73;;;5.00;;
19183;SDS011;9724;51.194;6.856;2023-05-24T11:41:36;20.00;;;4.70;;
19183;SDS011;9724;51.194;6.856;2023-05-24T11:44:03;14.97;;;4.27;;
19183;SDS011;9724;51.194;6.856;2023-05-24T11:46:29;19.90;;;4.47;;
19183;SDS011;9724;51.194;6.856;2023-05-24T11:48:57;22.73;;;5.17;;
19183;SDS011;9724;51.194;6.856;2023-05-24T11:51:26;17.37;;;4.63;;
19183;SDS011;9724;51.194;6.856;2023-05-24T11:53:54;14.20;;;3.70;;
19183;SDS011;9724;51.194;6.856;2023-05-24T11:56:21;12.97;;;3.60;;
19183;SDS011;9724;51.194;6.856;2023-05-24T11:58:48;12.17;;;3.40;;
19183;SDS011;9724;51.194;6.856;2023-05-24T12:01:22;17.00;;;3.70;;
19183;SDS011;9724;51.194;6.856;2023-05-24T12:03:49;8.87;;;3.40;;
19183;SDS011;9724;51.194;6.856;2023-05-24T12:06:17;11.57;;;3.20;;
19183;SDS011;9724;51.194;6.856;2023-05-24T12:08:43;11.23;;;2.60;;
19183;SDS011;9724;51.194;6.856;2023-05-24T12:11:10;13.87;;;3.00;;
19183;SDS011;9724;51.194;6.856;2023-05-24T12:13:36;13.70;;;3.13;;
19183;SDS011;9724;51.194;6.856;2023-05-24T12:16:04;11.30;;;2.90;;
19183;SDS011;9724;51.194;6.856;2023-05-24T12:18:31;12.23;;;3.13;;
19183;SDS011;9724;51.194;6.856;2023-05-24T12:20:58;11.50;;;3.27;;
19183;SDS011;9724;51.194;6.856;2023-05-24T12:23:25;16.73;;;4.17;;
19183;SDS011;9724;51.194;6.856;2023-05-24T12:25:56;12.20;;;2.93;;
19183;SDS011;9724;51.194;6.856;2023-05-24T12:28:23;20.27;;;3.83;;
19183;SDS011;9724;51.194;6.856;2023-05-24T12:30:49;15.83;;;3.33;;
19183;SDS011;9724;51.194;6.856;2023-05-24T12:33:17;12.57;;;3.83;;
19183;SDS011;9724;51.194;6.856;2023-05-24T12:35:43;14.63;;;3.33;;
19183;SDS011;9724;51.194;6.856;2023-05-24T12:38:11;14.20;;;3.33;;
19183;SDS011;9724;51.194;6.856;2023-05-24T12:40:41;12.03;;;3.27;;
19183;SDS011;9724;51.194;6.856;2023-05-24T12:43:08;13.27;;;3.47;;
19183;SDS011;9724;51.194;6.856;2023-05-24T12:45:35;15.87;;;3.50;;
19183;SDS011;9724;51.194;6.856;2023-05-24T12:48:02;9.63;;;3.13;;
19183;SDS011;9724;51.194;6.856;2023-05-24T12:50:29;18.33;;;3.80;;
19183;SDS011;9724;51.194;6.856;2023-05-24T12:52:55;14.53;;;4.70;;
19183;SDS011;9724;51.194;6.856;2023-05-24T12:55:23;12.53;;;3.60;;
19183;SDS011;9724;51.194;6.856;2023-05-24T12:57:51;15.87;;;4.40;;
19183;SDS011;9724;51.194;6.856;2023-05-24T13:00:19;12.20;;;4.13;;
19183;SDS011;9724;51.194;6.856;2023-05-24T13:02:46;12.70;;;3.70;;
19183;SDS011;9724;51.194;6.856;2023-05-24T13:05:13;12.17;;;4.03;;
19183;SDS011;9724;51.194;6.856;2023-05-24T13:07:43;15.23;;;3.70;;
19183;SDS011;9724;51.194;6.856;2023-05-24T13:10:10;12.47;;;3.53;;
19183;SDS011;9724;51.194;6.856;2023-05-24T13:12:36;10.70;;;3.40;;
19183;SDS011;9724;51.194;6.856;2023-05-24T13:15:04;15.73;;;4.03;;
19183;SDS011;9724;51.194;6.856;2023-05-24T13:17:32;9.17;;;2.93;;
19183;SDS011;9724;51.194;6.856;2023-05-24T13:20:00;13.33;;;3.27;;
19183;SDS011;9724;51.194;6.856;2023-05-24T13:22:29;14.13;;;3.57;;
19183;SDS011;9724;51.194;6.856;2023-05-24T13:24:56;12.90;;;3.00;;
19183;SDS011;9724;51.194;6.856;2023-05-24T13:27:22;13.67;;;3.30;;
19183;SDS011;9724;51.194;6.856;2023-05-24T13:29:48;10.13;;;3.27;;
19183;SDS011;9724;51.194;6.856;2023-05-24T13:32:26;8.97;;;3.53;;
19183;SDS011;9724;51.194;6.856;2023-05-24T13:34:53;12.93;;;3.53;;
19183;SDS011;9724;51.194;6.856;2023-05-24T13:37:19;15.40;;;3.97;;
19183;SDS011;9724;51.194;6.856;2023-05-24T13:39:45;14.53;;;3.33;;
19183;SDS011;9724;51.194;6.856;2023-05-24T13:42:12;13.57;;;3.50;;
19183;SDS011;9724;51.194;6.856;2023-05-24T13:44:39;17.73;;;3.83;;
19183;SDS011;9724;51.194;6.856;2023-05-24T13:47:05;15.07;;;3.30;;
19183;SDS011;9724;51.194;6.856;2023-05-24T13:49:33;15.17;;;3.97;;
19183;SDS011;9724;51.194;6.856;2023-05-24T13:52:00;16.50;;;3.37;;
19183;SDS011;9724;51.194;6.856;2023-05-24T13:54:26;16.63;;;3.33;;
19183;SDS011;9724;51.194;6.856;2023-05-24T13:56:53;12.03;;;3.40;;
19183;SDS011;9724;51.194;6.856;2023-05-24T13:59:21;9.90;;;3.63;;
19183;SDS011;9724;51.194;6.856;2023-05-24T14:01:48;10.57;;;3.60;;
19183;SDS011;9724;51.194;6.856;2023-05-24T14:04:14;15.77;;;4.00;;
19183;SDS011;9724;51.194;6.856;2023-05-24T14:06:42;13.33;;;4.63;;
19183;SDS011;9724;51.194;6.856;2023-05-24T14:09:08;14.70;;;3.97;;
19183;SDS011;9724;51.194;6.856;2023-05-24T14:11:34;14.20;;;4.03;;
19183;SDS011;9724;51.194;6.856;2023-05-24T14:14:01;15.37;;;4.30;;
19183;SDS011;9724;51.194;6.856;2023-05-24T14:16:30;15.37;;;4.17;;
19183;SDS011;9724;51.194;6.856;2023-05-24T14:18:56;20.23;;;4.17;;
19183;SDS011;9724;51.194;6.856;2023-05-24T14:21:23;21.63;;;4.70;;
19183;SDS011;9724;51.194;6.856;2023-05-24T14:23:51;14.03;;;4.03;;
19183;SDS011;9724;51.194;6.856;2023-05-24T14:26:18;14.53;;;3.70;;
19183;SDS011;9724;51.194;6.856;2023-05-24T14:28:45;14.20;;;3.97;;
19183;SDS011;9724;51.194;6.856;2023-05-24T14:31:11;18.03;;;4.00;;
19183;SDS011;9724;51.194;6.856;2023-05-24T14:33:42;14.63;;;4.20;;
19183;SDS011;9724;51.194;6.856;2023-05-24T14:36:09;15.53;;;4.27;;
19183;SDS011;9724;51.194;6.856;2023-05-24T14:38:35;14.03;;;4.20;;
19183;SDS011;9724;51.194;6.856;2023-05-24T14:41:02;15.83;;;3.90;;
19183;SDS011;9724;51.194;6.856;2023-05-24T14:43:29;10.10;;;3.80;;
19183;SDS011;9724;51.194;6.856;2023-05-24T14:45:55;14.63;;;4.20;;
19183;SDS011;9724;51.194;6.856;2023-05-24T14:48:22;12.13;;;4.00;;
19183;SDS011;9724;51.194;6.856;2023-05-24T14:50:48;13.40;;;3.97;;
19183;SDS011;9724;51.194;6.856;2023-05-24T14:53:15;19.17;;;3.87;;